Metar z pełnej godziny Komunikat METAR ze strony awiacja.imgw.pl Metar G00 EPSC METAR EPSC 162200Z 12007KT 9999 BKN027 OVC031 M01/M05 Q1016 =